Latest Weather Observations for Toowoomba

IDQ60901

Issued at 11:55 am EST Wednesday 3 September 2014 (issued every 10 minutes, with the page automatically refreshed every 10 minutes)

About weather observations | Map of Brisbane area stations | Latest observations for Brisbane area | Other Formats
Station Details ID: 041529 Name: TOOWOOMBA AIRPORT Lat: -27.54 Lon: 151.91 Height: 640.9 m
Data from the previous 72 hours. | See also: Recent months at Toowoomba
Date/Time
EST
Tmp

°C
App
Tmp
°C
Dew
Point
°C
Rel
Hum
%
Delta-T

°C
Wind Press
QNH
hPa
Press
MSL
hPa
Rain
since
9 am
mm
Dir
 
Spd
km/h
Gust
km/h
Spd
kts
Gust
kts
03/11:30am 12.9 3.4 -1.1 38 5.9 WSW 39 54 21 29 1014.8 - 0.0
03/11:00am 12.3 2.6 0.7 45 5.0 WSW 41 52 22 28 1015.1 - 0.0
03/10:30am 11.6 3.2 1.3 49 4.5 WSW 35 54 19 29 1015.4 - 0.0
03/10:29am 11.4 2.9 1.1 49 4.5 WSW 35 54 19 29 1015.4 - 0.0
03/10:00am 10.9 2.1 1.4 52 4.1 SW 37 50 20 27 1015.5 - 0.0
03/09:30am 9.9 1.4 1.0 54 3.8 WSW 35 50 19 27 1015.8 - 0.0
03/09:00am 9.2 0.7 0.9 56 3.5 WSW 35 50 19 27 1016.0 1014.2 0.0
03/08:30am 8.5 0.0 1.2 60 3.1 WSW 35 48 19 26 1015.7 - 0.0
03/08:00am 7.9 0.5 1.7 65 2.6 WSW 30 41 16 22 1015.7 - 0.0
03/07:30am 6.6 -0.5 1.3 69 2.2 WSW 28 35 15 19 1015.8 - 0.0
03/07:00am 5.7 -1.8 1.1 72 1.9 W 30 41 16 22 1015.2 - 0.0
03/06:30am 5.1 -1.7 0.9 74 1.7 WSW 26 33 14 18 1014.9 - 0.0
03/06:00am 5.2 -2.0 0.8 73 1.8 WSW 28 39 15 21 1014.7 1012.9 0.0
03/05:30am 5.5 -1.7 0.9 72 1.9 W 28 39 15 21 1014.7 - 0.0
03/05:00am 5.8 -1.4 1.0 71 2.0 W 28 35 15 19 1014.4 - 0.0
03/04:30am 6.0 -0.4 1.0 70 2.1 W 24 32 13 17 1014.3 - 0.0
03/04:00am 6.3 -0.1 1.0 69 2.2 WSW 24 33 13 18 1014.2 - 0.0
03/03:30am 6.6 0.2 1.1 68 2.3 WSW 24 32 13 17 1014.3 - 0.0
03/03:00am 6.8 0.0 1.1 67 2.4 WSW 26 35 14 19 1014.5 1012.7 0.0
03/02:30am 7.1 0.7 1.0 65 2.5 WSW 24 35 13 19 1014.8 - 0.0
03/02:00am 7.2 0.8 1.1 65 2.5 WSW 24 37 13 20 1015.2 - 0.0
03/01:30am 7.6 0.8 1.0 63 2.8 WSW 26 33 14 18 1015.6 - 0.0
03/01:00am 8.0 1.6 1.0 61 2.9 WSW 24 32 13 17 1015.9 - 0.0
03/12:30am 8.1 1.7 0.8 60 3.1 WSW 24 33 13 18 1016.0 - 0.0
03/12:00am 8.5 2.1 0.7 58 3.3 WSW 24 33 13 18 1016.1 1014.3 0.0
 
Date/Time
EST
Tmp

°C
App
Tmp
°C
Dew
Point
°C
Rel
Hum
%
Delta-T

°C
Wind Press
QNH
hPa
Press
MSL
hPa
Rain
since
9 am
mm
Dir
 
Spd
km/h
Gust
km/h
Spd
kts
Gust
kts
02/11:30pm 8.7 2.6 0.7 57 3.4 WSW 22 30 12 16 1016.1 - 0.0
02/11:00pm 8.9 3.2 0.4 55 3.5 WSW 20 28 11 15 1016.2 - 0.0
02/10:30pm 9.3 2.8 0.2 53 3.8 WSW 24 33 13 18 1016.3 - 0.0
02/10:00pm 9.8 3.3 0.2 51 4.0 WSW 24 32 13 17 1016.3 - 0.0
02/09:30pm 10.4 3.9 0.4 50 4.2 WSW 24 33 13 18 1016.4 - 0.0
02/09:00pm 10.8 4.4 0.8 50 4.3 WSW 24 35 13 19 1016.3 1014.5 0.0
02/08:30pm 11.4 5.0 0.8 48 4.6 WSW 24 35 13 19 1016.1 - 0.0
02/08:00pm 12.1 5.7 1.1 47 4.8 WSW 24 33 13 18 1016.0 - 0.0
02/07:30pm 12.7 5.1 0.8 44 5.2 SW 30 43 16 23 1015.6 - 0.0
02/07:00pm 12.9 5.5 1.6 46 5.0 SW 30 41 16 22 1015.0 - 0.0
02/06:31pm 13.6 5.9 2.5 47 5.1 WSW 32 50 17 27 1014.5 - 0.0
02/06:30pm 13.7 5.9 2.6 47 5.1 WSW 33 50 18 27 1014.5 - 0.0
02/06:12pm 14.7 7.3 1.6 41 5.9 WSW 30 48 16 26 1014.1 - 0.0
02/06:00pm 15.4 7.8 0.4 36 6.7 W 30 39 16 21 1013.7 1011.9 0.0
02/05:30pm 16.3 8.3 0.4 34 7.1 W 32 44 17 24 1013.1 - 0.0
02/05:00pm 17.1 9.4 2.3 37 6.9 W 32 44 17 24 1012.7 - 0.0
02/04:48pm 17.6 9.9 2.4 36 7.2 W 32 50 17 27 1012.6 - 0.0
02/04:30pm 18.0 10.3 3.5 38 7.0 W 33 50 18 27 1012.4 - 0.0
02/04:25pm 18.0 10.2 3.1 37 7.1 W 33 52 18 28 1012.4 - 0.0
02/04:00pm 17.8 9.4 3.7 39 6.8 WSW 37 50 20 27 1012.1 - 0.0
02/03:30pm 19.3 10.9 3.9 36 7.6 W 37 57 20 31 1012.0 - 0.0
02/03:02pm 20.1 11.9 2.5 31 8.5 WSW 35 54 19 29 1011.6 - 0.0
02/03:00pm 20.1 11.4 2.0 30 8.6 WSW 37 54 20 29 1011.6 1009.8 0.0
02/02:39pm 19.3 10.6 -0.7 26 9.0 WSW 35 44 19 24 1011.4 - 0.0
02/02:30pm 20.0 10.5 -0.6 25 9.3 W 39 57 21 31 1011.4 - 0.0
02/02:03pm 22.3 13.9 1.3 25 10.0 W 35 54 19 29 1011.3 - 0.0
02/02:00pm 21.2 12.2 -0.1 24 9.8 W 37 54 20 29 1011.2 - 0.0
02/01:50pm 21.2 11.9 0.4 25 9.7 W 39 59 21 32 1011.1 - 0.0
02/01:45pm 22.0 12.9 1.6 26 9.8 WSW 39 50 21 27 1011.2 - 0.0
02/01:30pm 23.3 14.3 0.4 22 10.8 W 37 56 20 30 1011.1 - 0.0
02/01:03pm 22.0 13.4 0.5 24 10.1 WNW 35 56 19 30 1011.3 - 0.0
02/01:00pm 22.0 14.0 1.6 26 9.8 WNW 33 46 18 25 1011.5 - 0.0
02/12:55pm 21.8 13.4 1.5 26 9.7 WNW 35 54 19 29 1011.6 - 0.0
02/12:30pm 21.5 13.7 2.7 29 9.2 NW 33 50 18 27 1012.2 - 0.0
02/12:13pm 21.6 14.5 3.3 30 9.0 WNW 30 50 16 27 1012.5 - 0.0
02/12:00pm 21.0 13.8 5.0 35 8.1 WNW 32 44 17 24 1012.9 1011.1 0.0
02/11:30am 20.9 13.8 5.3 36 8.0 WNW 32 44 17 24 1013.4 - 0.0
02/11:04am 20.2 12.4 4.7 36 7.8 WNW 35 54 19 29 1014.0 - 0.0
02/11:00am 21.0 12.9 5.4 36 8.0 WNW 37 46 20 25 1014.1 - 0.0
02/10:46am 20.5 12.9 4.1 34 8.2 WNW 33 54 18 29 1014.2 - 0.0
02/10:30am 20.2 13.0 5.1 37 7.6 NW 32 44 17 24 1014.2 - 0.0
02/10:00am 18.7 11.4 5.5 42 6.7 NW 33 43 18 23 1014.7 - 0.0
02/09:30am 17.4 10.4 6.0 47 5.8 NW 32 44 17 24 1015.1 - 0.0
02/09:00am 15.5 10.0 6.0 53 4.7 NW 24 32 13 17 1015.5 1013.7 0.0
02/08:30am 14.8 8.8 5.3 53 4.6 NW 26 35 14 19 1015.8 - 0.0
02/08:00am 14.1 9.2 4.9 54 4.4 NW 20 28 11 15 1016.0 - 0.0
02/07:30am 13.8 9.0 4.4 53 4.5 NW 19 33 10 18 1015.8 - 0.0
02/07:00am 13.0 9.3 4.2 55 4.2 NW 13 19 7 10 1016.0 - 0.0
02/06:30am 12.6 8.5 4.1 56 4.0 NNW 15 19 8 10 1016.0 - 0.0
02/06:00am 12.2 8.1 4.2 58 3.7 NNW 15 17 8 9 1015.9 1014.1 0.0
02/05:30am 11.7 8.3 4.0 59 3.6 NNW 11 15 6 8 1015.6 - 0.0
02/05:00am 11.6 8.1 3.6 58 3.7 NNW 11 13 6 7 1015.7 - 0.0
02/04:30am 12.3 8.5 3.8 56 4.0 NW 13 19 7 10 1015.7 - 0.0
02/04:00am 12.7 8.5 3.9 55 4.1 N 15 19 8 10 1015.6 - 0.0
02/03:30am 12.7 8.6 4.2 56 4.0 N 15 20 8 11 1015.7 - 0.0
02/03:00am 12.9 9.2 4.3 56 4.1 N 13 17 7 9 1016.0 1014.2 0.0
02/02:30am 12.8 9.1 4.3 56 4.0 N 13 19 7 10 1016.0 - 0.0
02/02:00am 13.0 9.3 4.4 56 4.1 N 13 17 7 9 1016.5 - 0.0
02/01:30am 13.3 9.6 4.2 54 4.3 N 13 19 7 10 1017.0 - 0.0
02/01:00am 13.6 9.5 4.2 53 4.5 N 15 20 8 11 1017.1 - 0.0
02/12:30am 13.9 9.0 3.9 51 4.7 N 19 24 10 13 1017.5 - 0.0
02/12:00am 14.2 9.8 2.5 45 5.4 N 15 19 8 10 1017.7 1015.9 0.0
 
Date/Time
EST
Tmp

°C
App
Tmp
°C
Dew
Point
°C
Rel
Hum
%
Delta-T

°C
Wind Press
QNH
hPa
Press
MSL
hPa
Rain
since
9 am
mm
Dir
 
Spd
km/h
Gust
km/h
Spd
kts
Gust
kts
01/11:30pm 13.5 9.9 0.5 41 5.7 NNW 9 13 5 7 1017.7 - 0.0
01/11:00pm 14.7 11.1 0.9 39 6.2 N 9 11 5 6 1017.8 - 0.0
01/10:30pm 14.4 12.5 0.6 39 6.1 CALM 0 7 0 4 1018.0 - 0.0
01/10:00pm 14.3 12.5 0.9 40 6.0 CALM 0 0 0 0 1017.9 - 0.0
01/09:30pm 14.6 11.4 0.8 39 6.1 NNW 7 9 4 5 1018.1 - 0.0
01/09:00pm 15.1 12.5 0.9 38 6.3 WNW 4 6 2 3 1018.3 1016.6 0.0
01/08:30pm 15.7 13.5 1.1 37 6.6 W 2 7 1 4 1018.4 - 0.0
01/08:00pm 15.9 14.1 1.2 37 6.7 CALM 0 4 0 2 1018.3 - 0.0
01/07:30pm 16.6 13.0 0.7 34 7.2 WNW 9 13 5 7 1018.3 - 0.0
01/07:00pm 17.2 13.6 0.8 33 7.5 NNW 9 11 5 6 1018.2 - 0.0
01/06:30pm 17.8 14.6 0.9 32 7.7 NNW 7 9 4 5 1017.9 - 0.0
01/06:00pm 18.3 14.7 0.4 30 8.1 NNW 9 13 5 7 1017.5 1015.7 0.0
01/05:30pm 19.8 15.0 0.3 27 9.0 NW 15 24 8 13 1017.5 - 0.0
01/05:00pm 21.0 16.2 0.2 25 9.6 NW 15 24 8 13 1017.5 - 0.0
01/04:30pm 20.8 15.0 0.1 25 9.5 WNW 20 28 11 15 1017.3 - 0.0
01/04:00pm 22.1 17.1 1.2 25 9.9 NW 17 20 9 11 1017.1 - 0.0
01/03:30pm 21.5 15.2 1.7 27 9.5 W 24 33 13 18 1017.3 - 0.0
01/03:00pm 22.1 16.0 2.8 28 9.5 WNW 24 35 13 19 1017.2 1015.4 0.0
01/02:30pm 21.6 15.6 1.3 26 9.6 WNW 22 33 12 18 1017.5 - 0.0
01/02:00pm 21.5 16.0 1.7 27 9.5 NW 20 28 11 15 1017.9 - 0.0
01/01:30pm 22.0 16.6 2.7 28 9.4 NW 20 37 11 20 1018.3 - 0.0
01/01:00pm 21.2 16.3 2.0 28 9.2 WNW 17 30 9 16 1018.8 - 0.0
01/12:30pm 20.9 14.7 2.2 29 9.0 WNW 24 32 13 17 1019.6 - 0.0
01/12:00pm 19.8 13.8 1.3 29 8.6 WNW 22 33 12 18 1019.9 1018.2 0.0
01/11:30am 20.2 15.2 1.1 28 8.9 NNW 17 24 9 13 1020.2 - 0.0
01/11:00am 19.1 14.4 3.3 35 7.7 NW 17 22 9 12 1020.5 - 0.0
01/10:30am 18.5 14.2 5.4 42 6.6 NW 17 22 9 12 1020.9 - 0.0
01/10:00am 18.1 13.9 5.7 44 6.3 NW 17 20 9 11 1021.3 - 0.0
01/09:30am 17.6 13.4 5.5 45 6.1 NNW 17 22 9 12 1021.6 - 0.0
01/09:00am 16.7 13.3 5.9 49 5.4 NW 13 20 7 11 1021.7 1020.0 0.0
01/08:30am 15.6 13.8 7.1 57 4.3 ENE 6 9 3 5 1021.5 - 0.0
01/08:00am 13.7 12.3 11.0 84 1.5 E 9 11 5 6 1021.3 - 0.0
01/07:30am 12.5 11.3 11.6 94 0.5 E 9 11 5 6 1021.1 - 0.0
01/07:00am 11.4 9.7 11.1 98 0.2 E 11 13 6 7 1020.8 - 0.0
01/06:30am 9.9 7.8 9.6 98 0.2 E 11 13 6 7 1020.5 - 0.0
01/06:00am 9.1 6.7 8.5 96 0.3 E 11 13 6 7 1020.0 1018.3 0.0
01/05:30am 9.4 7.0 8.6 95 0.4 E 11 13 6 7 1019.8 - 0.0
01/05:00am 9.9 7.9 8.8 93 0.6 ENE 9 11 5 6 1019.8 - 0.0
01/04:30am 10.8 8.5 10.5 98 0.2 ENE 13 15 7 8 1019.6 - 0.0
01/04:10am 10.8 8.9 10.6 99 0.1 ENE 11 15 6 8 1019.6 - 0.0
01/04:00am 11.0 9.2 10.8 99 0.1 ENE 11 17 6 9 1019.7 - 0.0
01/03:40am 11.1 8.9 10.9 99 0.1 ENE 13 17 7 9 1019.7 - 0.0
01/03:30am 11.0 8.8 10.8 99 0.1 ENE 13 15 7 8 1019.7 - 0.0
01/03:05am 11.3 9.2 11.1 99 0.1 ENE 13 15 7 8 1019.7 - 0.0
01/03:00am 11.3 9.2 11.1 99 0.1 ENE 13 17 7 9 1019.7 1018.0 0.0
01/02:30am 11.4 9.3 11.1 98 0.2 ENE 13 15 7 8 1019.9 - 0.0
01/02:22am 11.4 9.3 11.1 98 0.2 ENE 13 15 7 8 1019.9 - 0.0
01/02:00am 11.6 9.2 11.3 98 0.2 ENE 15 17 8 9 1020.1 - 0.0
01/01:55am 11.6 9.2 11.3 98 0.2 ENE 15 17 8 9 1020.1 - 0.0
01/01:30am 11.9 8.8 11.6 98 0.2 E 19 22 10 12 1020.1 - 0.0
01/01:00am 12.0 8.9 11.7 98 0.2 E 19 20 10 11 1020.2 - 0.0
01/12:57am 12.1 9.0 11.6 97 0.3 E 19 20 10 11 1020.2 - 0.0
01/12:52am 12.0 9.2 11.5 97 0.3 E 17 20 9 11 1020.2 - 0.0
01/12:41am 12.1 9.4 11.6 97 0.3 E 17 20 9 11 1020.4 - 0.0
01/12:30am 12.0 9.2 11.4 96 0.3 E 17 22 9 12 1020.2 - 0.0
01/12:00am 12.2 9.0 11.3 94 0.5 E 19 22 10 12 1020.4 1019.6 0.0
 
Date/Time
EST
Tmp

°C
App
Tmp
°C
Dew
Point
°C
Rel
Hum
%
Delta-T

°C
Wind Press
QNH
hPa
Press
MSL
hPa
Rain
since
9 am
mm
Dir
 
Spd
km/h
Gust
km/h
Spd
kts
Gust
kts
31/11:30pm 12.3 9.5 11.4 94 0.5 E 17 20 9 11 1020.5 - 0.0
31/11:00pm 12.4 9.1 11.0 91 0.8 E 19 22 10 12 1020.4 - 0.0
31/10:30pm 12.7 9.3 10.6 87 1.1 E 19 24 10 13 1020.5 - 0.0
31/10:00pm 13.2 9.6 10.7 85 1.4 E 20 24 11 13 1020.4 - 0.0
31/09:30pm 13.4 9.1 10.6 83 1.5 E 24 32 13 17 1020.4 - 0.0
31/09:00pm 13.5 9.0 10.1 80 1.8 E 24 30 13 16 1020.4 1019.6 0.0
31/08:30pm 14.0 9.4 9.8 76 2.2 E 24 30 13 16 1020.2 - 0.0
31/08:00pm 14.3 10.3 8.9 70 2.8 ESE 20 24 11 13 1020.1 - 0.0
31/07:30pm 16.0 13.7 5.0 48 5.4 SSE 6 7 3 4 1019.7 - 0.0
31/07:00pm 16.7 14.2 4.7 45 5.9 S 7 9 4 5 1019.4 - 0.0
31/06:30pm 17.6 15.1 4.9 43 6.3 S 7 13 4 7 1019.0 - 0.0
31/06:00pm 17.7 15.4 4.6 42 6.4 S 6 6 3 3 1018.9 1018.1 0.0
31/05:30pm 17.8 15.2 4.4 41 6.6 WSW 7 9 4 5 1018.5 - 0.0
31/05:00pm 18.8 15.9 4.9 40 6.9 SW 9 9 5 5 1018.4 - 0.0
31/04:30pm 19.4 15.6 4.0 36 7.6 WSW 13 20 7 11 1018.2 - 0.0
31/04:00pm 20.5 16.9 4.9 36 7.9 SW 13 17 7 9 1018.0 - 0.0
31/03:30pm 20.5 17.0 5.3 37 7.7 W 13 20 7 11 1017.9 - 0.0
31/03:00pm 20.7 17.5 5.1 36 7.9 W 11 17 6 9 1017.9 1017.1 0.0
31/02:30pm 20.7 18.5 5.1 36 7.9 W 6 11 3 6 1018.0 - 0.0
31/02:00pm 20.9 17.9 6.1 38 7.7 WNW 11 17 6 9 1018.2 - 0.0
31/01:30pm 20.0 16.3 4.5 36 7.7 W 13 20 7 11 1018.3 - 0.0
31/01:00pm 19.9 16.9 5.9 40 7.2 W 11 17 6 9 1018.9 - 0.0
31/12:30pm 18.6 15.3 6.4 45 6.3 SW 13 20 7 11 1019.4 - 0.0
31/12:00pm 18.1 14.7 5.7 44 6.2 W 13 19 7 10 1019.7 1018.9 0.0

Latest Capital City Observations: Canberra | Sydney | Melbourne | Brisbane | Adelaide | Perth | Hobart | Darwin

Other Formats:

Comma delimited format used in spreadsheet applications
http://www.bom.gov.au/fwo/IDQ60901/IDQ60901.95551.axf

JavaScript Object Notation format (JSON) in row-major order
http://www.bom.gov.au/fwo/IDQ60901/IDQ60901.95551.json